Time;durP1;ratioP1;P1;durP2;ratioP2;P2;SDS_P1;SDS_P2;PMS_P1;PMS_P2;Temp;Humidity;BMP_temperature;BMP_pressure;BME280_temperature;BME280_humidity;BME280_pressure;Samples;Min_cycle;Max_cycle;Signal;HPM_P1;HPM_P2
2022/08/18 00:01:50;;;;;;;5.70;5.20;;;;;;;27.52;40.58;94926.22;6184419;28;104229;-58
2022/08/18 00:04:55;;;;;;;6.27;5.77;;;;;;;27.44;40.29;94926.03;6184840;28;103734;-58
2022/08/18 00:07:59;;;;;;;5.93;5.33;;;;;;;27.62;40.04;94925.72;6175066;28;104558;-58
2022/08/18 00:11:02;;;;;;;5.40;5.00;;;;;;;27.72;40.01;94926.00;6183025;28;105406;-58
2022/08/18 00:14:07;;;;;;;7.90;5.73;;;;;;;27.77;40.03;94925.75;6181559;28;103106;-58
2022/08/18 00:17:11;;;;;;;5.80;5.30;;;;;;;27.48;40.30;94922.66;6184215;28;103122;-58
2022/08/18 00:20:18;;;;;;;5.90;5.50;;;;;;;27.20;40.95;94926.06;6173536;28;103701;-58
2022/08/18 00:23:22;;;;;;;6.40;5.80;;;;;;;27.09;41.59;94928.47;6183320;28;105728;-58
2022/08/18 00:26:25;;;;;;;6.43;5.93;;;;;;;27.05;41.63;94927.59;6182007;28;104317;-58
2022/08/18 00:29:30;;;;;;;6.20;5.77;;;;;;;26.96;41.23;94926.16;6177648;28;104788;-58
2022/08/18 00:32:35;;;;;;;6.07;5.47;;;;;;;26.95;41.44;94922.69;6179513;28;104370;-58
2022/08/18 00:35:39;;;;;;;6.67;6.07;;;;;;;26.95;41.30;94928.06;6185297;28;103263;-57
2022/08/18 00:38:42;;;;;;;6.30;5.70;;;;;;;26.82;41.97;94921.94;6183829;28;103604;-58
2022/08/18 00:41:45;;;;;;;6.03;5.50;;;;;;;26.89;41.47;94929.44;6172923;28;104318;-58
2022/08/18 00:44:50;;;;;;;5.83;5.37;;;;;;;26.99;41.82;94928.94;6183741;28;103026;-57
2022/08/18 00:47:53;;;;;;;6.60;6.10;;;;;;;27.20;41.11;94926.06;6183248;28;103048;-58
2022/08/18 00:51:01;;;;;;;6.73;6.23;;;;;;;27.45;41.11;94929.50;6184467;28;103180;-58
2022/08/18 00:54:08;;;;;;;6.07;5.67;;;;;;;27.62;40.69;94939.16;6174469;28;102953;-58
2022/08/18 00:57:17;;;;;;;6.50;5.90;;;;;;;27.68;40.32;94941.25;6183583;28;104278;-58
2022/08/18 01:00:22;;;;;;;6.67;6.27;;;;;;;27.73;40.58;94941.00;6182815;28;103126;-58
2022/08/18 01:03:27;;;;;;;6.50;6.00;;;;;;;27.61;40.14;94938.38;6180154;28;104214;-57
2022/08/18 01:06:38;;;;;;;6.70;6.20;;;;;;;27.45;41.12;94946.41;6178057;28;103112;-58
2022/08/18 01:09:41;;;;;;;7.13;6.30;;;;;;;27.20;41.04;94934.13;6174448;28;103626;-57
2022/08/18 01:12:44;;;;;;;6.77;6.27;;;;;;;27.14;41.07;94940.88;6179998;28;104316;-57
2022/08/18 01:15:50;;;;;;;6.90;6.40;;;;;;;27.08;41.41;94936.88;6169999;28;103126;-57
2022/08/18 01:22:21;;;;;;;7.20;6.50;;;;;;;26.93;41.98;94942.97;6184040;28;103784;-58
2022/08/18 01:28:48;;;;;;;7.43;6.90;;;;;;;26.75;41.94;94942.44;6171925;28;104722;-58
2022/08/18 01:31:54;;;;;;;6.73;6.10;;;;;;;27.00;41.41;94945.84;6180569;28;103330;-58
2022/08/18 01:34:59;;;;;;;6.50;6.07;;;;;;;27.17;41.24;94937.50;6184617;28;103244;-57
2022/08/18 01:38:02;;;;;;;6.97;6.47;;;;;;;27.38;40.75;94929.28;6177934;28;103741;-57
2022/08/18 01:41:07;;;;;;;6.60;6.10;;;;;;;27.44;40.58;94928.72;6178820;28;103837;-58
2022/08/18 01:44:30;;;;;;;6.57;6.10;;;;;;;27.63;40.94;94933.44;6183421;28;103392;-58
2022/08/18 01:47:34;;;;;;;7.10;6.40;;;;;;;27.68;40.49;94927.03;6182344;28;104158;-58
2022/08/18 01:50:53;;;;;;;6.67;6.17;;;;;;;27.53;40.38;94922.41;6172451;28;103359;-57
2022/08/18 01:53:57;;;;;;;6.93;6.33;;;;;;;27.32;40.74;94920.69;6183902;28;103836;-58
2022/08/18 01:57:01;;;;;;;6.00;5.50;;;;;;;27.17;41.49;94919.50;6179300;28;104162;-57
2022/08/18 02:00:06;;;;;;;6.20;5.70;;;;;;;27.06;41.76;94921.13;6176333;28;103139;-58
2022/08/18 02:03:14;;;;;;;7.40;6.60;;;;;;;27.05;41.50;94924.91;6174151;28;104091;-58
2022/08/18 02:06:19;;;;;;;6.50;5.90;;;;;;;26.99;41.97;94917.41;6182919;28;102973;-57
2022/08/18 02:09:36;;;;;;;6.70;5.90;;;;;;;26.90;41.97;94914.88;6182411;28;103086;-58
2022/08/18 02:12:41;;;;;;;6.67;6.17;;;;;;;26.73;41.83;94921.31;6173301;28;104131;-58
2022/08/18 02:15:44;;;;;;;6.47;5.97;;;;;;;26.70;42.25;94927.31;6179202;28;103018;-57
2022/08/18 02:18:48;;;;;;;6.30;5.80;;;;;;;26.80;41.81;94929.56;6181635;28;103276;-58
2022/08/18 02:21:52;;;;;;;6.97;6.37;;;;;;;26.86;41.94;94936.25;6183402;28;104265;-57
2022/08/18 02:24:57;;;;;;;7.00;6.43;;;;;;;27.02;41.26;94941.69;6174114;28;104162;-57
2022/08/18 02:28:01;;;;;;;6.70;6.20;;;;;;;27.10;41.05;94929.25;6183436;28;103432;-58
2022/08/18 02:31:06;;;;;;;6.67;6.17;;;;;;;27.33;40.46;94935.69;6176976;28;104644;-58
2022/08/18 02:34:10;;;;;;;7.03;6.53;;;;;;;27.41;40.79;94929.41;6182070;28;104130;-57
2022/08/18 02:37:13;;;;;;;6.97;6.37;;;;;;;27.39;40.93;94925.50;6177418;28;103579;-58
2022/08/18 02:40:18;;;;;;;7.00;6.50;;;;;;;27.33;41.05;94927.63;6186430;28;103920;-58
2022/08/18 02:43:22;;;;;;;6.63;6.13;;;;;;;27.15;40.76;94923.66;6184520;28;103153;-57
2022/08/18 02:46:26;;;;;;;6.43;6.00;;;;;;;27.06;41.42;94920.31;6175341;28;104210;-58
2022/08/18 02:49:32;;;;;;;7.53;7.00;;;;;;;26.91;41.63;94921.03;6184958;28;103474;-58
2022/08/18 02:52:35;;;;;;;7.00;6.50;;;;;;;26.79;41.91;94927.22;6182820;28;103277;-57
2022/08/18 02:55:41;;;;;;;6.70;6.20;;;;;;;26.73;41.70;94929.34;6186599;28;104100;-57
2022/08/18 02:58:45;;;;;;;6.57;6.07;;;;;;;26.60;42.18;94933.13;6174786;28;103487;-58
2022/08/18 03:01:51;;;;;;;6.70;6.10;;;;;;;26.65;42.01;94938.31;6185737;28;104047;-58
2022/08/18 03:04:54;;;;;;;6.63;6.10;;;;;;;26.59;42.20;94934.25;6183044;28;104022;-59
2022/08/18 03:07:58;;;;;;;6.43;5.93;;;;;;;26.78;42.01;94931.00;6185737;28;103260;-58
2022/08/18 03:11:01;;;;;;;6.77;6.17;;;;;;;27.00;41.66;94929.72;6158642;28;103243;-57
2022/08/18 03:14:07;;;;;;;6.37;5.97;;;;;;;27.03;41.21;94934.41;6175219;28;103244;-59
2022/08/18 03:17:13;;;;;;;10.10;6.47;;;;;;;27.09;41.43;94931.16;6183252;28;103293;-58
2022/08/18 03:20:20;;;;;;;10.60;6.33;;;;;;;27.23;40.84;94933.47;6174525;28;103567;-58
2022/08/18 03:23:33;;;;;;;8.23;6.33;;;;;;;27.34;40.79;94939.94;6182667;28;103184;-58
2022/08/18 03:26:41;;;;;;;8.10;6.70;;;;;;;27.49;41.33;94951.09;6186250;28;103270;-58
2022/08/18 03:29:45;;;;;;;7.13;6.43;;;;;;;27.57;40.56;94942.09;6173217;28;103141;-58
2022/08/18 03:32:49;;;;;;;6.50;6.00;;;;;;;27.65;40.19;94949.22;6174699;28;103168;-59
2022/08/18 03:35:52;;;;;;;9.43;7.30;;;;;;;27.68;40.56;94949.31;6184367;28;105129;-58
2022/08/18 03:38:55;;;;;;;7.73;6.90;;;;;;;27.62;40.63;94948.00;6186014;28;104239;-58
2022/08/18 03:41:59;;;;;;;8.10;7.30;;;;;;;27.36;40.75;94950.34;6183497;28;104442;-58
2022/08/18 03:45:06;;;;;;;8.43;7.17;;;;;;;27.16;41.01;94949.38;6175857;28;104963;-61
2022/08/18 03:48:19;;;;;;;9.33;8.00;;;;;;;26.94;41.35;94958.72;6185761;28;104458;-58
2022/08/18 03:51:25;;;;;;;9.07;8.27;;;;;;;26.89;42.21;94952.81;6166511;28;103176;-58
2022/08/18 03:54:30;;;;;;;8.23;7.63;;;;;;;26.78;41.76;94955.97;6168654;28;103583;-59
2022/08/18 03:57:34;;;;;;;7.83;7.17;;;;;;;26.74;42.14;94959.66;6182388;28;103267;-58
2022/08/18 04:00:42;;;;;;;8.50;7.70;;;;;;;26.70;42.52;94953.38;6182487;28;103056;-59
2022/08/18 04:03:47;;;;;;;9.60;7.63;;;;;;;26.89;42.26;94960.88;6183420;28;103675;-59
2022/08/18 04:06:57;;;;;;;8.00;7.30;;;;;;;26.97;42.26;94962.66;6172685;28;104202;-59
2022/08/18 04:10:00;;;;;;;8.00;7.40;;;;;;;27.01;42.33;94963.53;6179790;28;102791;-60
2022/08/18 04:13:05;;;;;;;10.80;7.40;;;;;;;27.06;42.36;94971.38;6178759;28;104169;-58
2022/08/18 04:16:10;;;;;;;8.07;7.37;;;;;;;27.17;42.15;94967.84;6184608;28;104221;-59
2022/08/18 04:19:13;;;;;;;8.63;7.23;;;;;;;27.24;41.90;94972.66;6175350;28;104968;-59
2022/08/18 04:22:31;;;;;;;8.10;7.40;;;;;;;27.33;41.04;94969.84;6179605;28;104534;-59
2022/08/18 04:25:34;;;;;;;8.27;7.47;;;;;;;27.32;41.37;94963.69;6183087;28;103254;-59
2022/08/18 04:28:38;;;;;;;8.63;6.83;;;;;;;27.48;40.81;94971.81;6174062;28;103887;-58
2022/08/18 04:31:43;;;;;;;9.80;7.80;;;;;;;27.45;40.70;94967.91;6183110;28;103225;-58
2022/08/18 04:34:46;;;;;;;8.13;6.93;;;;;;;27.32;41.57;94973.66;6184096;28;103132;-58
2022/08/18 04:37:49;;;;;;;8.03;7.20;;;;;;;27.23;42.35;94976.47;6181995;28;103254;-60
2022/08/18 04:40:53;;;;;;;9.63;7.60;;;;;;;27.17;42.20;94975.13;6171464;28;103878;-60
2022/08/18 04:43:58;;;;;;;7.80;7.13;;;;;;;27.02;41.93;94981.19;6168978;28;102924;-58
2022/08/18 04:47:03;;;;;;;7.83;7.23;;;;;;;26.86;42.85;94984.56;6160841;28;103150;-59
2022/08/18 04:50:07;;;;;;;8.07;7.37;;;;;;;26.82;43.62;94989.06;6160623;28;103105;-57
2022/08/18 04:56:33;;;;;;;8.60;7.80;;;;;;;26.43;44.12;94992.41;6160681;28;103252;-58
2022/08/18 04:59:39;;;;;;;9.30;8.40;;;;;;;26.31;44.54;94995.06;6160772;28;104199;-58
2022/08/18 05:02:43;;;;;;;10.40;8.67;;;;;;;26.25;45.04;94995.31;6151597;28;103164;-57
2022/08/18 05:05:46;;;;;;;11.90;8.40;;;;;;;26.40;44.79;94993.09;6160887;28;103152;-58
2022/08/18 05:08:49;;;;;;;14.40;9.03;;;;;;;26.42;44.61;94997.00;6160198;28;103127;-59
2022/08/18 05:11:52;;;;;;;9.07;8.17;;;;;;;26.46;44.82;95003.25;6161011;28;103243;-58
2022/08/18 05:14:56;;;;;;;13.93;8.73;;;;;;;26.59;44.50;95001.38;6151928;28;104219;-59
2022/08/18 05:18:01;;;;;;;12.73;8.37;;;;;;;26.85;43.88;95001.03;6159427;28;103035;-59
2022/08/18 05:21:12;;;;;;;15.20;8.93;;;;;;;26.90;44.11;95005.41;6160019;28;103092;-57
2022/08/18 05:24:16;;;;;;;10.33;8.70;;;;;;;26.63;44.56;95004.97;6160657;28;103788;-59
2022/08/18 05:27:20;;;;;;;10.87;8.53;;;;;;;26.45;44.98;95006.28;6150275;28;104226;-59
2022/08/18 05:30:23;;;;;;;9.90;8.50;;;;;;;26.28;45.14;95013.41;6160312;28;104362;-59
2022/08/18 05:33:27;;;;;;;11.70;8.27;;;;;;;26.38;45.38;95011.41;6160152;28;104300;-58
2022/08/18 05:36:58;;;;;;;10.73;9.63;;;;;;;26.28;46.08;95008.03;6153211;28;102970;-58
2022/08/18 05:40:06;;;;;;;10.70;8.60;;;;;;;26.11;46.04;95007.47;6159566;28;103985;-60
2022/08/18 05:43:15;;;;;;;11.07;9.00;;;;;;;26.22;45.95;95009.38;6159750;28;104017;-58
2022/08/18 05:46:22;;;;;;;11.60;9.30;;;;;;;26.02;46.52;95015.56;6159890;28;103266;-60
2022/08/18 05:49:27;;;;;;;12.40;10.50;;;;;;;26.09;46.85;95021.19;6150063;28;104215;-59
2022/08/18 05:52:35;;;;;;;12.37;10.20;;;;;;;26.13;46.83;95011.38;6163917;28;104213;-60
2022/08/18 05:59:02;;;;;;;10.87;10.00;;;;;;;26.62;45.82;95016.78;6178189;28;103229;-61
2022/08/18 06:02:13;;;;;;;8.80;8.10;;;;;;;26.81;45.87;95013.56;6179410;28;102890;-58
2022/08/18 06:05:26;;;;;;;9.37;8.40;;;;;;;27.01;45.58;95017.25;6188282;28;103737;-58
2022/08/18 06:08:38;;;;;;;11.90;8.20;;;;;;;27.23;44.69;95011.41;6188522;28;102975;-58
2022/08/18 06:11:42;;;;;;;9.23;8.40;;;;;;;27.33;44.38;95010.16;6177442;28;103116;-59
2022/08/18 06:14:45;;;;;;;9.60;7.70;;;;;;;27.44;45.30;95008.56;6188595;28;104087;-58
2022/08/18 06:18:09;;;;;;;8.70;7.97;;;;;;;27.58;43.54;95013.56;6188736;28;103082;-58
2022/08/18 06:21:33;;;;;;;10.27;7.97;;;;;;;27.57;44.37;95010.09;6188356;28;103218;-58
2022/08/18 06:24:46;;;;;;;9.03;8.17;;;;;;;27.48;44.10;95005.97;6183499;28;104064;-59
2022/08/18 06:27:55;;;;;;;10.67;7.70;;;;;;;27.36;44.19;95007.56;6188173;28;103323;-59
2022/08/18 06:31:05;;;;;;;7.90;7.10;;;;;;;27.31;44.18;95005.13;6189003;28;103992;-58
2022/08/18 06:34:20;;;;;;;8.80;8.00;;;;;;;27.25;44.63;95003.78;6177038;28;103783;-58
2022/08/18 06:37:31;;;;;;;10.60;8.03;;;;;;;27.22;45.61;95006.34;6188323;28;103326;-59
2022/08/18 06:40:35;;;;;;;7.67;7.03;;;;;;;27.20;44.56;95005.91;6188163;28;103160;-59
2022/08/18 06:43:44;;;;;;;8.73;7.93;;;;;;;27.17;44.81;95015.44;6186798;28;103333;-59
2022/08/18 06:46:55;;;;;;;7.97;7.27;;;;;;;27.17;44.66;95004.69;6178099;28;103672;-59
2022/08/18 06:50:05;;;;;;;8.73;7.90;;;;;;;27.17;44.72;95004.69;6187782;28;104325;-59
2022/08/18 06:53:09;;;;;;;8.27;7.57;;;;;;;27.17;45.16;94999.31;6188126;28;103211;-59
2022/08/18 06:56:45;;;;;;;8.73;7.83;;;;;;;27.10;45.38;94991.06;6177526;28;104399;-59
2022/08/18 06:59:56;;;;;;;12.07;8.47;;;;;;;27.36;44.47;94991.44;6187631;28;103699;-57
2022/08/18 07:03:06;;;;;;;8.37;7.67;;;;;;;27.52;44.18;94986.13;6187567;28;103146;-58
2022/08/18 07:06:11;;;;;;;9.63;8.10;;;;;;;27.68;44.00;94988.88;6187095;28;103207;-58
2022/08/18 07:09:22;;;;;;;11.00;8.33;;;;;;;27.85;43.21;94983.19;6176815;28;103436;-58
2022/08/18 07:12:28;;;;;;;9.60;8.70;;;;;;;27.91;43.81;94983.75;6186844;28;104330;-59
2022/08/18 07:15:35;;;;;;;11.43;8.50;;;;;;;28.01;43.13;94977.84;6186277;28;104141;-59
2022/08/18 07:18:38;;;;;;;9.13;8.40;;;;;;;28.04;43.41;94974.47;6182066;28;104297;-58
2022/08/18 07:21:41;;;;;;;11.20;9.63;;;;;;;28.13;43.02;94974.31;6183487;28;104293;-59
2022/08/18 07:24:49;;;;;;;12.17;8.37;;;;;;;28.15;42.63;94974.75;6187169;28;103827;-58
2022/08/18 07:27:55;;;;;;;9.23;8.33;;;;;;;28.20;43.00;94969.09;6186619;28;102903;-58
2022/08/18 07:31:18;;;;;;;11.03;9.27;;;;;;;28.24;42.89;94961.91;6176235;28;103107;-58
2022/08/18 07:34:27;;;;;;;13.50;9.10;;;;;;;28.33;43.52;94973.28;6186946;28;103932;-58
2022/08/18 07:37:34;;;;;;;11.63;9.50;;;;;;;28.44;43.00;94973.53;6186758;28;103063;-59
2022/08/18 07:40:46;;;;;;;14.17;9.73;;;;;;;28.43;42.90;94962.00;6186673;28;103121;-59
2022/08/18 07:43:59;;;;;;;17.50;9.70;;;;;;;28.45;42.90;94967.81;6180241;28;103681;-59
2022/08/18 07:47:07;;;;;;;13.87;10.17;;;;;;;28.50;43.60;94961.41;6186385;28;104209;-60
2022/08/18 07:50:10;;;;;;;10.07;8.77;;;;;;;28.50;42.56;94962.19;6186494;28;103012;-59
2022/08/18 07:53:45;;;;;;;9.93;9.00;;;;;;;28.42;42.81;94959.66;6176884;28;103043;-59
2022/08/18 07:57:15;;;;;;;10.00;9.00;;;;;;;28.28;42.78;94968.16;6186137;28;104212;-57
2022/08/18 08:00:24;;;;;;;10.40;9.33;;;;;;;28.24;42.81;94965.41;6186109;28;103163;-57
2022/08/18 08:03:54;;;;;;;10.00;9.00;;;;;;;28.15;43.47;94964.00;6181266;28;103002;-58
2022/08/18 08:07:04;;;;;;;10.20;9.20;;;;;;;28.20;43.06;94963.72;6180335;28;103182;-57
2022/08/18 08:10:34;;;;;;;10.07;9.17;;;;;;;28.20;43.79;94961.81;6185297;28;103286;-58
2022/08/18 08:13:53;;;;;;;11.73;9.80;;;;;;;28.11;43.41;94955.06;6185999;28;103523;-58
2022/08/18 08:17:07;;;;;;;10.60;9.67;;;;;;;28.00;43.51;94963.63;6175111;28;104643;-59
2022/08/18 08:20:20;;;;;;;10.90;9.80;;;;;;;28.06;43.20;94958.78;6185573;28;104138;-60
2022/08/18 08:23:30;;;;;;;9.87;8.93;;;;;;;28.15;42.94;94966.69;6186272;28;104223;-59
2022/08/18 08:26:49;;;;;;;10.23;9.50;;;;;;;28.19;41.53;94956.78;6179729;28;104197;-52
2022/08/18 08:30:03;;;;;;;10.77;8.60;;;;;;;28.28;41.38;94957.41;6184145;28;102879;-60
2022/08/18 08:33:13;;;;;;;9.87;8.97;;;;;;;28.31;41.25;94954.00;6185345;28;103069;-61
2022/08/18 08:36:21;;;;;;;8.40;7.70;;;;;;;28.34;41.49;94958.69;6186102;28;104290;-59
2022/08/18 08:39:28;;;;;;;8.80;8.10;;;;;;;28.39;40.90;94961.09;6175224;28;104287;-60
2022/08/18 08:42:37;;;;;;;8.20;7.50;;;;;;;28.39;40.95;94955.72;6185961;28;103347;-59
2022/08/18 08:45:49;;;;;;;8.10;7.50;;;;;;;28.45;40.52;94950.88;6186003;28;104300;-60
2022/08/18 08:48:59;;;;;;;7.90;7.20;;;;;;;28.45;40.47;94951.66;6183018;28;104244;-59
2022/08/18 08:52:09;;;;;;;7.40;6.83;;;;;;;28.45;39.53;94948.19;6179331;28;103150;-60
2022/08/18 08:55:18;;;;;;;8.93;8.13;;;;;;;28.43;39.62;94951.22;6184847;28;103666;-59
2022/08/18 08:58:26;;;;;;;7.57;6.80;;;;;;;28.39;39.81;94958.41;6184256;28;103968;-60
2022/08/18 09:01:37;;;;;;;7.20;6.60;;;;;;;28.24;40.17;94948.47;6175675;28;103949;-60
2022/08/18 09:04:50;;;;;;;8.80;7.07;;;;;;;28.14;39.76;94944.38;6184533;28;103241;-59
2022/08/18 09:08:37;;;;;;;7.23;6.63;;;;;;;28.02;39.61;94953.28;6184970;28;104126;-60
2022/08/18 09:12:18;;;;;;;7.37;6.77;;;;;;;27.96;40.07;94943.94;6179610;28;103213;-59
2022/08/18 09:15:40;;;;;;;6.97;6.27;;;;;;;27.95;39.26;94945.06;6184785;28;104269;-62
2022/08/18 09:18:57;;;;;;;7.00;6.50;;;;;;;27.86;39.84;94933.66;6184177;28;103065;-60
2022/08/18 09:22:05;;;;;;;7.73;6.83;;;;;;;27.91;39.72;94928.06;6176955;28;104063;-60
2022/08/18 09:25:11;;;;;;;7.30;6.60;;;;;;;28.06;40.19;94934.56;6162609;28;105165;-60
2022/08/18 09:28:17;;;;;;;6.80;6.30;;;;;;;28.24;39.99;94922.34;6176504;28;103379;-59
2022/08/18 09:31:20;;;;;;;7.10;6.50;;;;;;;28.36;39.51;94922.22;6173647;28;104650;-58
2022/08/18 09:34:40;;;;;;;7.30;6.60;;;;;;;28.55;38.90;94921.53;6177459;28;103158;-60
2022/08/18 09:41:34;;;;;;;6.93;6.43;;;;;;;28.79;38.88;94915.13;6184455;28;104263;-59
2022/08/18 09:45:02;;;;;;;7.50;6.93;;;;;;;28.71;39.45;94915.31;6184523;28;103400;-59
2022/08/18 09:48:23;;;;;;;7.40;6.70;;;;;;;28.68;39.22;94907.94;6174017;28;105022;-52
2022/08/18 09:51:37;;;;;;;7.90;6.87;;;;;;;28.65;39.09;94909.44;6184444;28;103481;-59
2022/08/18 09:54:52;;;;;;;6.83;6.33;;;;;;;28.52;39.78;94906.06;6183347;28;103551;-56
2022/08/18 09:58:13;;;;;;;8.23;6.60;;;;;;;28.52;39.07;94899.91;6172460;28;105029;-57
2022/08/18 10:01:40;;;;;;;6.80;6.20;;;;;;;28.44;39.43;94888.19;6184218;28;104027;-56
2022/08/18 10:04:50;;;;;;;6.90;6.20;;;;;;;28.42;38.62;94900.44;6184221;28;104072;-57
2022/08/18 10:08:18;;;;;;;6.80;6.10;;;;;;;28.43;38.23;94886.63;6183652;28;103066;-56
2022/08/18 10:11:39;;;;;;;7.20;6.20;;;;;;;28.34;39.35;94888.72;6178489;28;106409;-56
2022/08/18 10:15:11;;;;;;;7.97;7.17;;;;;;;28.23;39.25;94893.09;6184056;28;102965;-56
2022/08/18 10:18:52;;;;;;;6.73;6.20;;;;;;;28.13;39.38;94878.22;6183522;28;104271;-56
2022/08/18 10:22:05;;;;;;;10.20;7.70;;;;;;;28.02;40.60;94886.03;6144624;28;103207;-56
2022/08/18 10:25:13;;;;;;;10.93;9.20;;;;;;;27.89;40.69;94879.22;6181868;28;103216;-56
2022/08/18 10:28:53;;;;;;;10.87;9.73;;;;;;;27.80;40.27;94877.78;6158207;28;103028;-57
2022/08/18 10:32:22;;;;;;;9.33;8.43;;;;;;;27.83;39.20;94885.16;6147218;28;103132;-56
2022/08/18 10:35:55;;;;;;;8.37;7.77;;;;;;;27.98;38.97;94871.72;6159053;28;103116;-56
2022/08/18 10:38:58;;;;;;;9.03;8.33;;;;;;;28.09;39.39;94871.22;6158526;28;104162;-56
2022/08/18 10:42:14;;;;;;;8.20;7.50;;;;;;;28.15;38.43;94867.13;6159154;28;103030;-56
2022/08/18 10:45:22;;;;;;;9.17;8.27;;;;;;;28.31;38.57;94874.03;6148230;28;104266;-57
2022/08/18 10:48:29;;;;;;;9.00;8.30;;;;;;;28.38;38.89;94862.66;6158109;28;103042;-56
2022/08/18 10:52:03;;;;;;;9.10;8.40;;;;;;;28.35;38.37;94857.97;6163224;28;103339;-56
2022/08/18 10:55:21;;;;;;;7.90;7.33;;;;;;;28.42;38.45;94857.38;6151834;28;104216;-56
2022/08/18 10:58:57;;;;;;;9.07;8.33;;;;;;;28.45;38.77;94852.06;6162220;28;103636;-57
2022/08/18 11:02:18;;;;;;;8.80;8.10;;;;;;;28.46;39.16;94848.25;6119733;28;103372;-56
2022/08/18 11:05:25;;;;;;;9.57;8.77;;;;;;;28.34;38.72;94842.94;6157894;28;104020;-57
2022/08/18 11:08:37;;;;;;;9.13;8.13;;;;;;;28.19;38.39;94841.84;6176255;28;103130;-54
2022/08/18 11:11:43;;;;;;;9.33;8.47;;;;;;;28.03;39.63;94838.41;6187122;28;103490;-58
2022/08/18 11:15:16;;;;;;;9.50;8.70;;;;;;;28.17;40.06;94829.88;6184350;28;103112;-59
2022/08/18 11:18:33;;;;;;;9.57;8.40;;;;;;;28.33;40.00;94833.31;6170709;28;103164;-51
2022/08/18 11:21:47;;;;;;;9.10;8.20;;;;;;;28.46;40.42;94837.47;6187342;28;104108;-51
2022/08/18 11:24:53;;;;;;;11.00;8.60;;;;;;;28.57;40.68;94825.03;6187645;28;103085;-52
2022/08/18 11:27:58;;;;;;;10.27;8.40;;;;;;;28.31;40.49;94844.44;6182140;28;103600;-56
2022/08/18 11:31:03;;;;;;;10.07;8.90;;;;;;;28.47;39.80;94841.75;6177651;28;104178;-54
2022/08/18 11:34:31;;;;;;;12.20;11.10;;;;;;;28.56;39.64;94828.06;6186603;28;102947;-55
2022/08/18 11:37:44;;;;;;;12.27;11.17;;;;;;;28.61;39.62;94836.66;6175460;28;102866;-56
2022/08/18 11:41:14;;;;;;;13.20;12.13;;;;;;;28.61;39.84;94833.97;6158625;28;105821;-54
2022/08/18 11:44:24;;;;;;;14.40;11.50;;;;;;;28.56;39.73;94831.56;6180623;28;103307;-55
2022/08/18 11:48:16;;;;;;;14.00;12.73;;;;;;;28.59;39.62;94830.84;6183948;28;103200;-55
2022/08/18 11:51:28;;;;;;;12.07;10.97;;;;;;;28.62;38.61;94819.38;6172580;28;103106;-55
2022/08/18 11:54:38;;;;;;;9.53;8.83;;;;;;;28.65;37.70;94823.25;6181337;28;104040;-54
2022/08/18 11:57:55;;;;;;;10.53;9.67;;;;;;;28.61;39.11;94808.94;6179704;28;103247;-56
2022/08/18 12:01:01;;;;;;;9.17;8.47;;;;;;;28.62;38.34;94811.28;6183364;28;103260;-53
2022/08/18 12:04:22;;;;;;;7.60;7.00;;;;;;;28.60;37.16;94807.41;6173353;28;104154;-56
2022/08/18 12:07:30;;;;;;;6.90;6.40;;;;;;;28.47;35.41;94798.66;6181796;28;103293;-55
2022/08/18 12:10:35;;;;;;;8.47;7.77;;;;;;;28.37;35.92;94801.88;6177705;28;103509;-54
2022/08/18 12:13:40;;;;;;;7.50;7.00;;;;;;;28.26;36.76;94790.88;6176129;28;104220;-55
2022/08/18 12:16:48;;;;;;;8.20;7.60;;;;;;;28.20;36.56;94788.81;6178250;28;104026;-55
2022/08/18 12:19:57;;;;;;;7.73;7.13;;;;;;;28.13;36.84;94786.75;6176461;28;103207;-55
2022/08/18 12:23:01;;;;;;;9.47;7.80;;;;;;;28.07;37.23;94787.38;6183638;28;103303;-54
2022/08/18 12:26:05;;;;;;;6.80;6.30;;;;;;;28.08;36.63;94788.94;6173581;28;105370;-55
2022/08/18 12:29:28;;;;;;;6.30;5.80;;;;;;;28.21;36.82;94788.44;6172256;28;102909;-51
2022/08/18 12:32:45;;;;;;;8.90;7.13;;;;;;;28.31;37.84;94793.28;6185288;28;103123;-52
2022/08/18 12:35:54;;;;;;;9.70;6.70;;;;;;;27.94;38.80;94789.38;6182729;28;103721;-54
2022/08/18 12:38:57;;;;;;;11.63;8.90;;;;;;;28.14;38.99;94790.22;6178932;28;104158;-54
2022/08/18 12:42:01;;;;;;;11.53;10.40;;;;;;;28.34;39.34;94776.44;6184600;28;103064;-55
2022/08/18 12:45:06;;;;;;;12.70;11.60;;;;;;;28.44;39.52;94783.19;6182666;28;104322;-55
2022/08/18 12:48:10;;;;;;;14.20;11.40;;;;;;;28.50;39.66;94781.78;6175107;28;103774;-55
2022/08/18 12:51:15;;;;;;;11.93;10.83;;;;;;;28.57;39.77;94781.19;6183490;28;103079;-56
2022/08/18 12:54:18;;;;;;;11.10;9.93;;;;;;;28.64;39.79;94784.00;6173607;28;103598;-57
2022/08/18 12:57:23;;;;;;;10.37;9.50;;;;;;;28.68;38.30;94782.16;6181318;28;103028;-57
2022/08/18 13:00:46;;;;;;;10.03;9.13;;;;;;;28.67;38.20;94772.53;6166215;28;106143;-56
2022/08/18 13:03:54;;;;;;;8.77;7.97;;;;;;;28.57;37.03;94778.50;6184507;28;103989;-60
2022/08/18 13:07:16;;;;;;;8.00;7.30;;;;;;;28.56;36.17;94772.31;6181922;28;103950;-56
2022/08/18 13:10:21;;;;;;;7.47;6.83;;;;;;;28.69;35.50;94772.16;6180648;28;104151;-56
2022/08/18 13:13:44;;;;;;;7.00;6.40;;;;;;;28.71;34.89;94762.59;6182434;28;102840;-56
2022/08/18 13:16:51;;;;;;;8.80;6.67;;;;;;;28.60;36.30;94762.41;6183892;28;105727;-57
2022/08/18 13:19:57;;;;;;;13.17;7.47;;;;;;;28.41;36.07;94758.91;6184715;28;103565;-57
2022/08/18 13:23:01;;;;;;;14.30;7.63;;;;;;;28.40;36.53;94752.72;6174122;28;104698;-56
2022/08/18 13:26:06;;;;;;;9.63;8.70;;;;;;;28.32;36.39;94756.41;6185546;28;103264;-57
2022/08/18 13:29:10;;;;;;;8.53;7.77;;;;;;;28.26;36.41;94752.44;6184396;28;103263;-56
2022/08/18 13:32:14;;;;;;;8.53;7.70;;;;;;;28.24;36.18;94750.09;6183984;28;103406;-57
2022/08/18 13:35:21;;;;;;;8.63;7.83;;;;;;;28.18;36.82;94748.00;6169627;28;104348;-56
2022/08/18 13:38:27;;;;;;;7.90;7.30;;;;;;;28.20;35.78;94748.44;6180770;28;104209;-56
2022/08/18 13:41:32;;;;;;;7.30;6.70;;;;;;;28.28;36.09;94739.41;6175871;28;103372;-55
2022/08/18 13:44:36;;;;;;;8.23;7.63;;;;;;;28.40;35.92;94741.97;6171160;28;104773;-54
2022/08/18 13:47:41;;;;;;;10.30;9.20;;;;;;;28.50;37.98;94738.72;6178404;28;103422;-59
2022/08/18 13:50:46;;;;;;;14.07;11.27;;;;;;;28.56;38.38;94734.63;6183261;28;103192;-58
2022/08/18 13:53:56;;;;;;;11.80;10.87;;;;;;;28.66;37.07;94744.03;6184810;28;103365;-57
2022/08/18 13:57:19;;;;;;;11.17;10.17;;;;;;;28.74;36.68;94744.97;6173694;28;104963;-58
2022/08/18 14:00:24;;;;;;;11.00;10.20;;;;;;;28.78;36.74;94735.81;6184560;28;104045;-57
2022/08/18 14:03:34;;;;;;;12.23;10.63;;;;;;;28.77;37.11;94733.47;6183451;28;104592;-58
2022/08/18 14:06:50;;;;;;;9.77;9.07;;;;;;;28.82;37.26;94733.19;6176077;28;104133;-57
2022/08/18 14:10:02;;;;;;;11.20;10.13;;;;;;;28.85;38.08;94719.00;6171014;28;103824;-57
2022/08/18 14:13:07;;;;;;;10.03;9.33;;;;;;;28.87;37.95;94722.09;6181580;28;103141;-58
2022/08/18 14:16:26;;;;;;;10.37;9.33;;;;;;;28.86;36.86;94726.72;6183512;28;103489;-58
2022/08/18 14:29:33;;;;;;;21.23;10.33;;;;;;;28.54;38.80;94733.41;6182541;28;103974;-55
2022/08/18 14:32:49;;;;;;;11.30;10.20;;;;;;;28.39;39.34;94724.22;6181731;28;103042;-55
2022/08/18 14:35:53;;;;;;;11.97;10.70;;;;;;;28.32;39.38;94724.09;6185607;28;103348;-55
2022/08/18 14:39:11;;;;;;;21.47;19.30;;;;;;;28.34;39.95;94716.44;6188487;28;103078;-55
2022/08/18 14:42:16;;;;;;;21.10;19.20;;;;;;;28.26;39.44;94712.84;6174168;28;104686;-56
2022/08/18 14:45:19;;;;;;;22.93;20.63;;;;;;;28.26;39.63;94720.91;6181621;28;103491;-50
2022/08/18 14:48:38;;;;;;;25.43;20.30;;;;;;;28.44;40.74;94707.81;6186374;28;102811;-54
2022/08/18 14:56:06;;;;;;;20.87;17.97;;;;;;;28.68;40.75;94720.22;6176861;28;104788;-55
2022/08/18 14:59:13;;;;;;;18.03;16.10;;;;;;;28.75;40.24;94720.38;6175814;28;104118;-54
2022/08/18 15:02:16;;;;;;;16.50;14.80;;;;;;;28.78;39.73;94716.19;6185390;28;104001;-55
2022/08/18 15:05:20;;;;;;;16.07;14.47;;;;;;;28.80;40.04;94721.97;6181329;28;103869;-55
2022/08/18 15:08:26;;;;;;;16.73;14.10;;;;;;;28.77;39.89;94714.63;6184074;28;104944;-54
2022/08/18 15:11:30;;;;;;;15.20;13.87;;;;;;;28.84;40.24;94714.75;6187911;28;104028;-53